createdAt,value
2022-09-11T00:01:07.358Z,100441.69
2022-09-11T00:03:34.980Z,100440.81
2022-09-11T00:06:06.900Z,100433.91
2022-09-11T00:08:34.580Z,100435.75
2022-09-11T00:11:09.935Z,100446.59
2022-09-11T00:13:38.197Z,100448.00
2022-09-11T00:16:07.352Z,100442.09
2022-09-11T00:18:36.043Z,100442.09
2022-09-11T00:21:04.194Z,100446.59
2022-09-11T00:23:31.001Z,100446.88
2022-09-11T00:26:02.274Z,100445.69
2022-09-11T00:28:29.139Z,100438.72
2022-09-11T00:31:07.691Z,100434.25
2022-09-11T00:33:35.544Z,100428.47
2022-09-11T00:36:06.205Z,100444.69
2022-09-11T00:38:35.005Z,100436.94
2022-09-11T00:41:02.747Z,100440.34
2022-09-11T00:43:31.200Z,100442.84
2022-09-11T00:46:01.586Z,100447.34
2022-09-11T00:48:31.676Z,100444.53
2022-09-11T00:50:59.933Z,100443.13
2022-09-11T00:53:30.517Z,100444.69
2022-09-11T00:56:01.295Z,100454.97
2022-09-11T00:58:28.702Z,100447.19
2022-09-11T01:00:56.612Z,100447.06
2022-09-11T01:03:25.627Z,100459.84
2022-09-11T01:05:53.541Z,100456.19
2022-09-11T01:08:21.168Z,100455.91
2022-09-11T01:11:13.624Z,100462.31
2022-09-11T01:13:53.992Z,100459.50
2022-09-11T01:16:32.415Z,100460.47
2022-09-11T01:19:31.774Z,100462.59
2022-09-11T01:22:31.490Z,100460.59
2022-09-11T01:25:28.931Z,100456.47
2022-09-11T01:27:57.635Z,100461.16
2022-09-11T01:30:30.669Z,100460.97
2022-09-11T01:33:18.702Z,100466.69
2022-09-11T01:36:03.925Z,100463.25
2022-09-11T01:38:46.897Z,100467.16
2022-09-11T01:41:27.900Z,100471.09
2022-09-11T01:44:02.201Z,100468.28
2022-09-11T01:46:30.997Z,100472.94
2022-09-11T01:49:10.506Z,100469.53
2022-09-11T01:51:40.198Z,100470.78
2022-09-11T01:54:23.195Z,100462.59
2022-09-11T01:57:00.328Z,100464.00
2022-09-11T01:59:37.598Z,100463.59
2022-09-11T02:02:07.870Z,100462.38
2022-09-11T02:04:39.177Z,100464.44
2022-09-11T02:07:34.759Z,100460.06
2022-09-11T02:10:52.521Z,100469.66
2022-09-11T02:13:24.018Z,100460.06
2022-09-11T02:15:57.270Z,100464.31
2022-09-11T02:18:37.099Z,100469.28
2022-09-11T02:21:03.833Z,100457.56
2022-09-11T02:23:30.600Z,100462.38
2022-09-11T02:25:57.260Z,100469.66
2022-09-11T02:28:24.216Z,100466.97
2022-09-11T02:30:51.227Z,100473.31
2022-09-11T02:33:29.868Z,100474.22
2022-09-11T02:36:07.685Z,100483.31
2022-09-11T02:38:58.399Z,100485.25
2022-09-11T02:41:28.775Z,100481.44
2022-09-11T02:44:04.127Z,100483.25
2022-09-11T02:46:59.277Z,100491.03
2022-09-11T02:49:40.234Z,100485.81
2022-09-11T02:52:18.450Z,100489.78
2022-09-11T02:55:09.422Z,100486.69
2022-09-11T02:57:37.819Z,100484.22
2022-09-11T03:00:07.837Z,100486.03
2022-09-11T03:02:37.641Z,100496.41
2022-09-11T03:05:05.921Z,100494.59
2022-09-11T03:07:33.418Z,100496.16
2022-09-11T03:10:00.343Z,100498.88
2022-09-11T03:12:29.903Z,100497.69
2022-09-11T03:14:57.615Z,100495.41
2022-09-11T03:17:25.552Z,100497.50
2022-09-11T03:19:52.288Z,100497.75
2022-09-11T03:22:19.046Z,100505.78
2022-09-11T03:24:46.491Z,100506.47
2022-09-11T03:27:13.309Z,100502.97
2022-09-11T03:29:41.743Z,100510.50
2022-09-11T03:32:08.554Z,100519.00
2022-09-11T03:34:35.215Z,100529.50
2022-09-11T03:37:02.301Z,100524.97
2022-09-11T03:39:29.222Z,100531.31
2022-09-11T03:41:59.008Z,100528.00
2022-09-11T03:44:26.144Z,100532.03
2022-09-11T03:46:53.858Z,100524.34
2022-09-11T03:49:20.554Z,100528.22
2022-09-11T03:51:48.010Z,100529.19
2022-09-11T03:54:16.196Z,100532.09
2022-09-11T03:56:44.629Z,100532.69
2022-09-11T03:59:11.399Z,100530.06
2022-09-11T04:01:38.463Z,100532.38
2022-09-11T04:04:06.302Z,100532.13
2022-09-11T04:06:37.982Z,100534.78
2022-09-11T04:09:05.482Z,100537.81
2022-09-11T04:11:36.759Z,100546.94
2022-09-11T04:14:05.685Z,100544.72
2022-09-11T04:16:33.472Z,100550.06
2022-09-11T04:19:01.924Z,100553.03
2022-09-11T04:21:29.564Z,100545.81
2022-09-11T04:23:57.511Z,100551.19
2022-09-11T04:26:29.260Z,100554.25
2022-09-11T04:29:01.676Z,100541.50
2022-09-11T04:31:28.992Z,100548.09
2022-09-11T04:33:57.964Z,100539.19
2022-09-11T04:36:30.127Z,100544.41
2022-09-11T04:38:58.876Z,100544.19
2022-09-11T04:41:26.573Z,100545.75
2022-09-11T04:44:02.514Z,100544.38
2022-09-11T04:46:32.140Z,100546.94
2022-09-11T04:49:00.319Z,100544.25
2022-09-11T04:51:30.367Z,100557.25
2022-09-11T04:53:58.750Z,100550.91
2022-09-11T04:56:32.832Z,100548.47
2022-09-11T04:59:06.002Z,100553.69
2022-09-11T05:01:35.958Z,100554.00
2022-09-11T05:04:03.454Z,100556.22
2022-09-11T05:06:31.347Z,100544.59
2022-09-11T05:09:04.443Z,100552.44
2022-09-11T05:11:34.088Z,100557.53
2022-09-11T05:14:00.953Z,100560.81
2022-09-11T05:16:31.076Z,100562.75
2022-09-11T05:18:58.959Z,100575.03
2022-09-11T05:21:26.973Z,100576.25
2022-09-11T05:23:58.469Z,100572.88
2022-09-11T05:26:30.831Z,100576.91
2022-09-11T05:29:01.240Z,100590.28
2022-09-11T05:31:30.316Z,100593.22
2022-09-11T05:34:00.352Z,100585.94
2022-09-11T05:36:28.517Z,100593.28
2022-09-11T05:38:55.281Z,100604.53
2022-09-11T05:41:21.986Z,100602.19
2022-09-11T05:43:49.104Z,100605.34
2022-09-11T05:46:17.628Z,100608.38
2022-09-11T05:48:46.248Z,100617.78
2022-09-11T05:51:15.385Z,100616.47
2022-09-11T05:53:43.028Z,100619.66
2022-09-11T05:56:17.125Z,100631.19
2022-09-11T05:58:46.321Z,100627.31
2022-09-11T06:01:19.423Z,100629.22
2022-09-11T06:03:51.418Z,100633.91
2022-09-11T06:06:22.173Z,100648.63
2022-09-11T06:08:50.163Z,100643.22
2022-09-11T06:11:18.104Z,100645.38
2022-09-11T06:13:46.576Z,100649.63
2022-09-11T06:16:19.759Z,100650.56
2022-09-11T06:18:50.030Z,100650.44
2022-09-11T06:21:20.672Z,100652.25
2022-09-11T06:23:54.856Z,100657.94
2022-09-11T06:26:24.705Z,100657.81
2022-09-11T06:28:53.513Z,100659.00
2022-09-11T06:31:24.502Z,100661.53
2022-09-11T06:33:53.297Z,100665.66
2022-09-11T06:36:27.223Z,100663.09
2022-09-11T06:38:57.572Z,100667.50
2022-09-11T06:41:27.346Z,100676.63
2022-09-11T06:44:01.235Z,100673.97
2022-09-11T06:46:29.603Z,100680.81
2022-09-11T06:48:57.687Z,100681.41
2022-09-11T06:51:27.856Z,100676.03
2022-09-11T06:53:57.905Z,100679.03
2022-09-11T06:56:27.234Z,100681.72
2022-09-11T06:58:54.208Z,100680.47
2022-09-11T07:01:24.697Z,100674.78
2022-09-11T07:03:56.272Z,100673.66
2022-09-11T07:06:26.031Z,100675.09
2022-09-11T07:08:56.854Z,100663.97
2022-09-11T07:11:23.663Z,100666.97
2022-09-11T07:13:50.389Z,100663.75
2022-09-11T07:16:17.276Z,100668.59
2022-09-11T07:18:50.249Z,100665.97
2022-09-11T07:21:21.775Z,100670.34
2022-09-11T07:23:54.620Z,100670.66
2022-09-11T07:26:24.585Z,100670.25
2022-09-11T07:28:57.688Z,100671.09
2022-09-11T07:31:29.249Z,100671.13
2022-09-11T07:33:57.046Z,100675.97
2022-09-11T07:36:30.368Z,100673.59
2022-09-11T07:38:58.604Z,100676.56
2022-09-11T07:41:33.369Z,100676.47
2022-09-11T07:44:03.873Z,100671.34
2022-09-11T07:46:33.040Z,100673.94
2022-09-11T07:49:04.052Z,100672.81
2022-09-11T07:51:30.920Z,100684.53
2022-09-11T07:54:02.131Z,100682.88
2022-09-11T07:56:31.375Z,100687.22
2022-09-11T07:59:01.578Z,100686.53
2022-09-11T08:01:30.811Z,100686.81
2022-09-11T08:04:04.096Z,100682.47
2022-09-11T08:06:33.208Z,100695.50
2022-09-11T08:09:05.915Z,100697.59
2022-09-11T08:11:46.070Z,100699.47
2022-09-11T08:14:13.816Z,100694.78
2022-09-11T08:16:41.815Z,100700.97
2022-09-11T08:19:14.437Z,100708.78
2022-09-11T08:21:41.178Z,100712.72
2022-09-11T08:24:08.172Z,100717.97
2022-09-11T08:26:37.527Z,100716.16
2022-09-11T08:29:05.291Z,100726.75
2022-09-11T08:31:33.898Z,100729.56
2022-09-11T08:34:01.303Z,100724.50
2022-09-11T08:36:33.218Z,100719.69
2022-09-11T08:39:03.461Z,100725.06
2022-09-11T08:41:47.736Z,100735.53
2022-09-11T08:44:25.145Z,100733.16
2022-09-11T08:47:22.288Z,100725.34
2022-09-11T08:50:02.973Z,100735.56
2022-09-11T08:52:32.604Z,100737.38
2022-09-11T08:55:00.156Z,100742.16
2022-09-11T08:57:37.900Z,100739.47
2022-09-11T09:00:14.558Z,100742.03
2022-09-11T09:03:20.902Z,100742.88
2022-09-11T09:06:27.143Z,100730.31
2022-09-11T09:09:29.755Z,100747.13
2022-09-11T09:12:10.756Z,100742.47
2022-09-11T09:15:03.517Z,100739.34
2022-09-11T09:17:39.247Z,100747.41
2022-09-11T09:20:12.031Z,100744.00
2022-09-11T09:22:45.059Z,100751.66
2022-09-11T09:25:15.851Z,100753.22
2022-09-11T09:27:46.667Z,100757.31
2022-09-11T09:30:19.362Z,100754.47
2022-09-11T09:33:27.328Z,100760.84
2022-09-11T09:35:54.716Z,100755.16
2022-09-11T09:38:28.311Z,100751.50
2022-09-11T09:41:02.088Z,100748.81
2022-09-11T09:43:42.433Z,100754.34
2022-09-11T09:46:21.922Z,100752.91
2022-09-11T09:48:49.384Z,100754.97
2022-09-11T09:51:16.109Z,100750.75
2022-09-11T09:53:47.983Z,100758.09
2022-09-11T09:56:17.298Z,100750.69
2022-09-11T09:58:57.418Z,100757.34
2022-09-11T10:01:40.039Z,100756.59
2022-09-11T10:04:13.943Z,100760.16
2022-09-11T10:06:40.771Z,100757.88
2022-09-11T10:09:18.959Z,100755.38
2022-09-11T10:11:46.808Z,100763.19
2022-09-11T10:14:46.865Z,100773.66
2022-09-11T10:17:19.898Z,100778.06
2022-09-11T10:19:46.801Z,100778.41
2022-09-11T10:22:19.609Z,100782.06
2022-09-11T10:24:46.499Z,100778.81
2022-09-11T10:27:13.239Z,100779.50
2022-09-11T10:29:50.241Z,100775.69
2022-09-11T10:32:18.008Z,100779.34
2022-09-11T10:34:44.958Z,100771.13
2022-09-11T10:37:11.761Z,100780.38
2022-09-11T10:39:39.805Z,100781.47
2022-09-11T10:42:22.018Z,100776.06
2022-09-11T10:44:50.755Z,100781.56
2022-09-11T10:47:23.307Z,100781.56
2022-09-11T10:49:50.392Z,100770.72
2022-09-11T10:52:19.642Z,100774.16
2022-09-11T10:55:07.948Z,100771.25
2022-09-11T10:57:37.849Z,100780.81
2022-09-11T11:00:13.191Z,100772.75
2022-09-11T11:02:44.926Z,100780.59
2022-09-11T11:05:39.603Z,100775.19
2022-09-11T11:08:15.389Z,100772.91
2022-09-11T11:10:56.347Z,100764.38
2022-09-11T11:13:47.135Z,100768.53
2022-09-11T11:16:33.103Z,100767.22
2022-09-11T11:19:11.260Z,100772.75
2022-09-11T11:22:05.713Z,100769.59
2022-09-11T11:24:41.674Z,100772.19
2022-09-11T11:27:43.291Z,100773.28
2022-09-11T11:30:13.143Z,100770.91
2022-09-11T11:32:58.453Z,100759.25
2022-09-11T11:35:44.870Z,100758.75
2022-09-11T11:38:14.618Z,100752.97
2022-09-11T11:40:47.513Z,100764.31
2022-09-11T11:43:18.801Z,100751.84
2022-09-11T11:45:57.941Z,100756.91
2022-09-11T11:48:38.581Z,100758.44
2022-09-11T11:51:07.152Z,100751.47
2022-09-11T11:53:41.248Z,100766.63
2022-09-11T11:56:14.981Z,100762.19
2022-09-11T11:59:03.356Z,100770.97
2022-09-11T12:01:38.585Z,100767.50
2022-09-11T12:04:27.308Z,100767.44
2022-09-11T12:06:54.149Z,100776.53
2022-09-11T12:09:20.967Z,100777.47
2022-09-11T12:11:50.151Z,100773.91
2022-09-11T12:14:26.820Z,100777.41
2022-09-11T12:16:55.532Z,100793.16
2022-09-11T12:19:28.797Z,100780.13
2022-09-11T12:21:55.884Z,100790.94
2022-09-11T12:24:50.726Z,100785.44
2022-09-11T12:27:35.190Z,100787.31
2022-09-11T12:30:17.547Z,100782.22
2022-09-11T12:32:46.106Z,100785.44
2022-09-11T12:35:35.311Z,100783.69
2022-09-11T12:38:09.117Z,100786.47
2022-09-11T12:40:53.348Z,100785.59
2022-09-11T12:43:45.799Z,100769.81
2022-09-11T12:46:33.888Z,100783.38
2022-09-11T12:49:23.774Z,100773.63
2022-09-11T12:51:56.079Z,100788.38
2022-09-11T12:54:27.096Z,100786.69
2022-09-11T12:57:01.007Z,100787.63
2022-09-11T12:59:39.529Z,100794.19
2022-09-11T13:02:42.222Z,100788.13
2022-09-11T13:05:38.056Z,100793.19
2022-09-11T13:08:07.517Z,100787.22
2022-09-11T13:10:37.283Z,100781.59
2022-09-11T13:13:35.002Z,100788.53
2022-09-11T13:16:28.669Z,100782.84
2022-09-11T13:19:12.323Z,100781.13
2022-09-11T13:21:41.564Z,100778.84
2022-09-11T13:24:24.179Z,100769.97
2022-09-11T13:26:55.539Z,100772.88
2022-09-11T13:29:24.915Z,100774.06
2022-09-11T13:31:51.745Z,100774.38
2022-09-11T13:34:20.269Z,100771.59
2022-09-11T13:36:49.981Z,100782.44
2022-09-11T13:39:19.943Z,100772.13
2022-09-11T13:41:49.762Z,100778.91
2022-09-11T13:44:49.110Z,100774.00
2022-09-11T13:47:26.857Z,100789.06
2022-09-11T13:49:56.189Z,100780.47
2022-09-11T13:52:25.557Z,100784.19
2022-09-11T13:54:54.026Z,100776.25
2022-09-11T13:57:25.363Z,100776.75
2022-09-11T14:00:01.599Z,100786.56
2022-09-11T14:02:34.856Z,100783.53
2022-09-11T14:05:10.533Z,100775.44
2022-09-11T14:07:47.726Z,100777.78
2022-09-11T14:10:19.603Z,100773.84
2022-09-11T14:13:05.773Z,100790.63
2022-09-11T14:15:42.489Z,100771.91
2022-09-11T14:18:20.558Z,100782.16
2022-09-11T14:20:47.633Z,100774.06
2022-09-11T14:23:24.612Z,100773.63
2022-09-11T14:26:06.248Z,100789.75
2022-09-11T14:28:47.277Z,100795.38
2022-09-11T14:31:28.088Z,100787.88
2022-09-11T14:34:17.975Z,100792.34
2022-09-11T14:36:49.182Z,100793.19
2022-09-11T14:39:24.527Z,100797.44
2022-09-11T14:41:52.493Z,100795.88
2022-09-11T14:44:22.247Z,100791.47
2022-09-11T14:46:49.033Z,100791.34
2022-09-11T14:49:16.216Z,100801.09
2022-09-11T14:51:43.369Z,100797.56
2022-09-11T14:54:15.176Z,100791.69
2022-09-11T14:56:42.574Z,100792.94
2022-09-11T14:59:09.393Z,100795.84
2022-09-11T15:01:36.908Z,100800.84
2022-09-11T15:04:05.208Z,100788.69
2022-09-11T15:06:31.921Z,100789.97
2022-09-11T15:09:01.608Z,100793.06
2022-09-11T15:11:28.454Z,100786.13
2022-09-11T15:14:15.996Z,100789.81
2022-09-11T15:16:44.601Z,100795.34
2022-09-11T15:19:11.820Z,100790.06
2022-09-11T15:21:38.893Z,100795.28
2022-09-11T15:24:06.044Z,100795.28
2022-09-11T15:26:34.221Z,100792.91
2022-09-11T15:29:01.135Z,100794.72
2022-09-11T15:31:28.935Z,100792.75
2022-09-11T15:33:55.728Z,100790.38
2022-09-11T15:36:22.613Z,100798.38
2022-09-11T15:38:54.201Z,100793.81
2022-09-11T15:41:25.471Z,100794.97
2022-09-11T15:43:52.510Z,100799.97
2022-09-11T15:46:20.085Z,100797.03
2022-09-11T15:48:48.340Z,100798.88
2022-09-11T15:51:20.968Z,100801.50
2022-09-11T15:53:48.551Z,100798.66
2022-09-11T15:56:25.257Z,100801.69
2022-09-11T15:58:55.579Z,100804.66
2022-09-11T16:01:27.902Z,100812.00
2022-09-11T16:03:59.328Z,100811.22
2022-09-11T16:06:27.850Z,100808.72
2022-09-11T16:08:58.976Z,100810.69
2022-09-11T16:11:29.300Z,100805.44
2022-09-11T16:13:56.362Z,100805.59
2022-09-11T16:16:24.298Z,100806.97
2022-09-11T16:18:51.367Z,100800.72
2022-09-11T16:21:18.654Z,100808.31
2022-09-11T16:23:55.050Z,100798.66
2022-09-11T16:26:25.287Z,100808.84
2022-09-11T16:28:53.331Z,100803.47
2022-09-11T16:31:25.942Z,100812.69
2022-09-11T16:33:56.167Z,100813.09
2022-09-11T16:36:33.594Z,100815.94
2022-09-11T16:43:05.363Z,100806.63
2022-09-11T16:45:34.936Z,100817.41
2022-09-11T16:48:05.103Z,100813.28
2022-09-11T16:50:34.644Z,100806.34
2022-09-11T16:53:01.686Z,100813.13
2022-09-11T16:55:28.752Z,100807.59
2022-09-11T16:57:55.623Z,100803.81
2022-09-11T17:00:25.170Z,100808.19
2022-09-11T17:02:52.618Z,100816.00
2022-09-11T17:05:19.453Z,100803.53
2022-09-11T17:07:48.687Z,100800.88
2022-09-11T17:10:15.642Z,100808.03
2022-09-11T17:12:42.760Z,100816.25
2022-09-11T17:15:11.135Z,100816.00
2022-09-11T17:17:38.234Z,100819.25
2022-09-11T17:20:12.607Z,100817.84
2022-09-11T17:22:40.261Z,100814.63
2022-09-11T17:25:07.841Z,100819.88
2022-09-11T17:27:36.555Z,100816.78
2022-09-11T17:30:07.735Z,100824.69
2022-09-11T17:32:35.573Z,100817.19
2022-09-11T17:35:05.270Z,100823.69
2022-09-11T17:37:36.110Z,100823.38
2022-09-11T17:40:09.599Z,100833.16
2022-09-11T17:42:37.645Z,100826.63
2022-09-11T17:45:07.875Z,100831.06
2022-09-11T17:47:34.936Z,100830.75
2022-09-11T17:50:04.849Z,100830.25
2022-09-11T17:52:33.440Z,100826.38
2022-09-11T17:55:00.343Z,100832.47
2022-09-11T17:57:27.287Z,100831.91
2022-09-11T17:59:55.523Z,100837.88
2022-09-11T18:02:22.381Z,100837.59
2022-09-11T18:04:49.199Z,100837.41
2022-09-11T18:07:16.630Z,100825.50
2022-09-11T18:09:44.212Z,100829.03
2022-09-11T18:12:14.829Z,100826.78
2022-09-11T18:14:44.105Z,100825.19
2022-09-11T18:17:11.706Z,100819.44
2022-09-11T18:19:38.992Z,100821.69
2022-09-11T18:22:07.025Z,100831.16
2022-09-11T18:24:38.072Z,100824.06
2022-09-11T18:27:07.064Z,100828.91
2022-09-11T18:29:35.324Z,100822.81
2022-09-11T18:32:03.537Z,100826.56
2022-09-11T18:34:31.355Z,100833.22
2022-09-11T18:37:00.019Z,100834.75
2022-09-11T18:39:27.507Z,100833.03
2022-09-11T18:41:54.785Z,100833.28
2022-09-11T18:44:25.384Z,100832.16
2022-09-11T18:46:56.003Z,100837.06
2022-09-11T18:49:23.144Z,100845.59
2022-09-11T18:51:50.148Z,100841.19
2022-09-11T18:54:19.412Z,100852.84
2022-09-11T18:56:46.565Z,100846.97
2022-09-11T18:59:13.763Z,100846.69
2022-09-11T19:01:41.568Z,100847.59
2022-09-11T19:04:10.606Z,100846.41
2022-09-11T19:06:39.040Z,100853.63
2022-09-11T19:09:10.438Z,100850.94
2022-09-11T19:11:40.966Z,100852.50
2022-09-11T19:14:11.015Z,100847.22
2022-09-11T19:16:39.056Z,100848.91
2022-09-11T19:19:09.674Z,100858.47
2022-09-11T19:21:38.540Z,100858.63
2022-09-11T19:24:06.892Z,100859.34
2022-09-11T19:26:40.239Z,100857.06
2022-09-11T19:29:08.927Z,100864.41
2022-09-11T19:31:36.916Z,100872.75
2022-09-11T19:34:04.022Z,100872.13
2022-09-11T19:36:35.605Z,100873.38
2022-09-11T19:39:05.920Z,100876.50
2022-09-11T19:41:37.676Z,100882.84
2022-09-11T19:44:06.691Z,100889.59
2022-09-11T19:46:35.140Z,100890.50
2022-09-11T19:49:03.552Z,100893.56
2022-09-11T19:51:34.999Z,100893.25
2022-09-11T19:54:05.425Z,100893.84
2022-09-11T19:56:39.885Z,100893.56
2022-09-11T19:59:10.510Z,100898.41
2022-09-11T20:01:42.202Z,100897.53
2022-09-11T20:04:10.313Z,100898.00
2022-09-11T20:06:40.324Z,100897.78
2022-09-11T20:11:57.592Z,100898.69
2022-09-11T20:14:27.459Z,100893.06
2022-09-11T20:17:01.278Z,100893.94
2022-09-11T20:19:31.033Z,100897.59
2022-09-11T20:22:03.499Z,100901.09
2022-09-11T20:24:33.815Z,100898.91
2022-09-11T20:27:08.033Z,100901.38
2022-09-11T20:29:40.335Z,100900.47
2022-09-11T20:32:14.796Z,100893.88
2022-09-11T20:34:44.501Z,100895.94
2022-09-11T20:37:14.516Z,100896.97
2022-09-11T20:39:41.869Z,100902.09
2022-09-11T20:42:13.720Z,100898.47
2022-09-11T20:44:46.508Z,100902.00
2022-09-11T20:47:16.576Z,100893.16
2022-09-11T20:49:55.962Z,100893.28
2022-09-11T20:52:27.631Z,100895.97
2022-09-11T20:54:55.837Z,100897.53
2022-09-11T20:57:23.891Z,100891.19
2022-09-11T20:59:56.200Z,100896.31
2022-09-11T21:02:25.013Z,100897.91
2022-09-11T21:04:56.875Z,100901.69
2022-09-11T21:07:28.746Z,100896.59
2022-09-11T21:10:01.437Z,100893.44
2022-09-11T21:12:37.603Z,100893.31
2022-09-11T21:15:10.677Z,100900.00
2022-09-11T21:17:43.633Z,100896.63
2022-09-11T21:20:21.375Z,100896.38
2022-09-11T21:22:51.432Z,100898.31
2022-09-11T21:25:27.920Z,100894.06
2022-09-11T21:28:03.843Z,100891.50
2022-09-11T21:30:39.020Z,100895.41
2022-09-11T21:33:13.747Z,100895.03
2022-09-11T21:35:54.556Z,100896.38
2022-09-11T21:38:34.228Z,100900.38
2022-09-11T21:41:13.101Z,100895.28
2022-09-11T21:43:43.230Z,100892.00
2022-09-11T21:46:16.956Z,100897.22
2022-09-11T21:48:50.586Z,100891.50
2022-09-11T21:51:23.613Z,100901.25
2022-09-11T21:54:03.556Z,100902.34
2022-09-11T21:56:33.106Z,100901.72
2022-09-11T21:59:08.932Z,100899.28
2022-09-11T22:01:42.425Z,100898.56
2022-09-11T22:04:12.024Z,100896.50
2022-09-11T22:06:40.250Z,100898.44
2022-09-11T22:09:14.082Z,100896.03
2022-09-11T22:11:44.277Z,100891.63
2022-09-11T22:14:21.518Z,100898.09
2022-09-11T22:16:52.104Z,100891.88
2022-09-11T22:19:26.748Z,100889.94
2022-09-11T22:21:56.546Z,100889.06
2022-09-11T22:24:31.251Z,100900.88
2022-09-11T22:27:04.075Z,100897.81
2022-09-11T22:29:31.162Z,100908.41
2022-09-11T22:31:58.211Z,100901.41
2022-09-11T22:34:24.992Z,100896.06
2022-09-11T22:36:51.771Z,100901.03
2022-09-11T22:39:18.771Z,100909.78
2022-09-11T22:41:45.599Z,100903.47
2022-09-11T22:44:12.841Z,100904.94
2022-09-11T22:46:46.946Z,100905.59
2022-09-11T22:49:15.896Z,100903.72
2022-09-11T22:51:44.791Z,100908.59
2022-09-11T22:54:17.335Z,100902.53
2022-09-11T22:56:45.075Z,100898.78
2022-09-11T22:59:15.226Z,100902.28
2022-09-11T23:01:43.261Z,100901.00
2022-09-11T23:04:10.565Z,100910.69
2022-09-11T23:06:56.019Z,100901.22
2022-09-11T23:09:22.935Z,100893.66
2022-09-11T23:11:49.688Z,100887.75
2022-09-11T23:14:16.379Z,100899.31
2022-09-11T23:16:43.338Z,100894.00
2022-09-11T23:19:12.066Z,100902.84
2022-09-11T23:21:44.117Z,100899.22
2022-09-11T23:24:14.694Z,100897.66
2022-09-11T23:26:47.911Z,100904.19
2022-09-11T23:29:20.114Z,100895.28
2022-09-11T23:31:57.843Z,100902.47
2022-09-11T23:34:43.077Z,100882.31
2022-09-11T23:37:15.765Z,100894.97
2022-09-11T23:39:42.907Z,100894.31
2022-09-11T23:42:09.880Z,100897.34
2022-09-11T23:44:36.682Z,100888.59
2022-09-11T23:47:09.221Z,100887.94
2022-09-11T23:49:38.700Z,100889.22
2022-09-11T23:52:09.591Z,100888.72
2022-09-11T23:54:42.758Z,100888.19
2022-09-11T23:57:14.673Z,100878.63
2022-09-11T23:59:43.002Z,100877.91
